sensor_id;sensor_type;location;lat;lon;timestamp;pressure;altitude;pressure_sealevel;temperature;humidity
79690;BME280;69156;55.932;-3.238;2023-12-04T00:00:16;100097.96;;;4.75;100.00
79690;BME280;69156;55.932;-3.238;2023-12-04T00:02:42;100099.20;;;4.77;100.00
79690;BME280;69156;55.932;-3.238;2023-12-04T00:05:08;100094.71;;;4.66;100.00
79690;BME280;69156;55.932;-3.238;2023-12-04T00:07:34;100090.47;;;4.68;100.00
79690;BME280;69156;55.932;-3.238;2023-12-04T00:09:59;100086.69;;;4.61;100.00
79690;BME280;69156;55.932;-3.238;2023-12-04T00:12:24;100085.38;;;4.56;100.00
79690;BME280;69156;55.932;-3.238;2023-12-04T00:14:49;100083.74;;;4.61;100.00
79690;BME280;69156;55.932;-3.238;2023-12-04T00:17:15;100082.61;;;4.49;100.00
79690;BME280;69156;55.932;-3.238;2023-12-04T00:19:40;100081.08;;;4.43;100.00
79690;BME280;69156;55.932;-3.238;2023-12-04T00:22:05;100085.06;;;4.52;100.00
79690;BME280;69156;55.932;-3.238;2023-12-04T00:24:31;100084.82;;;4.46;100.00
79690;BME280;69156;55.932;-3.238;2023-12-04T00:26:57;100085.73;;;4.42;100.00
79690;BME280;69156;55.932;-3.238;2023-12-04T00:29:23;100084.11;;;4.53;100.00
79690;BME280;69156;55.932;-3.238;2023-12-04T00:31:48;100082.80;;;4.38;100.00
79690;BME280;69156;55.932;-3.238;2023-12-04T00:34:15;100080.65;;;4.41;100.00
79690;BME280;69156;55.932;-3.238;2023-12-04T00:36:41;100073.92;;;4.66;100.00
79690;BME280;69156;55.932;-3.238;2023-12-04T00:39:07;100072.09;;;4.58;100.00
79690;BME280;69156;55.932;-3.238;2023-12-04T00:41:32;100071.45;;;4.57;100.00
79690;BME280;69156;55.932;-3.238;2023-12-04T00:43:57;100068.36;;;4.56;100.00
79690;BME280;69156;55.932;-3.238;2023-12-04T00:46:23;100069.54;;;4.48;100.00
79690;BME280;69156;55.932;-3.238;2023-12-04T00:48:49;100066.45;;;4.58;100.00
79690;BME280;69156;55.932;-3.238;2023-12-04T00:51:15;100065.64;;;4.26;100.00
79690;BME280;69156;55.932;-3.238;2023-12-04T00:53:41;100060.45;;;4.38;100.00
79690;BME280;69156;55.932;-3.238;2023-12-04T00:56:08;100060.34;;;4.28;100.00
79690;BME280;69156;55.932;-3.238;2023-12-04T00:58:32;100060.42;;;4.52;100.00
79690;BME280;69156;55.932;-3.238;2023-12-04T01:00:57;100056.54;;;4.45;100.00
79690;BME280;69156;55.932;-3.238;2023-12-04T01:03:23;100054.37;;;4.50;100.00
79690;BME280;69156;55.932;-3.238;2023-12-04T01:05:48;100053.32;;;4.56;100.00
79690;BME280;69156;55.932;-3.238;2023-12-04T01:08:13;100048.23;;;4.54;100.00
79690;BME280;69156;55.932;-3.238;2023-12-04T01:10:39;100045.51;;;4.51;100.00
79690;BME280;69156;55.932;-3.238;2023-12-04T01:13:04;100048.55;;;4.49;100.00
79690;BME280;69156;55.932;-3.238;2023-12-04T01:15:30;100046.76;;;4.57;100.00
79690;BME280;69156;55.932;-3.238;2023-12-04T01:17:55;100047.11;;;4.46;100.00
79690;BME280;69156;55.932;-3.238;2023-12-04T01:20:21;100045.63;;;4.50;100.00
79690;BME280;69156;55.932;-3.238;2023-12-04T01:22:47;100044.12;;;4.34;100.00
79690;BME280;69156;55.932;-3.238;2023-12-04T01:25:13;100044.62;;;4.44;100.00
79690;BME280;69156;55.932;-3.238;2023-12-04T01:27:38;100044.10;;;4.40;100.00
79690;BME280;69156;55.932;-3.238;2023-12-04T01:30:05;100047.30;;;4.34;100.00
79690;BME280;69156;55.932;-3.238;2023-12-04T01:32:29;100044.78;;;4.45;100.00
79690;BME280;69156;55.932;-3.238;2023-12-04T01:34:55;100044.19;;;4.45;100.00
79690;BME280;69156;55.932;-3.238;2023-12-04T01:37:20;100044.37;;;4.38;100.00
79690;BME280;69156;55.932;-3.238;2023-12-04T01:39:46;100041.59;;;4.26;100.00
79690;BME280;69156;55.932;-3.238;2023-12-04T01:42:11;100039.49;;;4.29;100.00
79690;BME280;69156;55.932;-3.238;2023-12-04T01:44:36;100037.04;;;4.29;100.00
79690;BME280;69156;55.932;-3.238;2023-12-04T01:47:02;100037.78;;;4.31;100.00
79690;BME280;69156;55.932;-3.238;2023-12-04T01:49:27;100038.71;;;4.25;100.00
79690;BME280;69156;55.932;-3.238;2023-12-04T01:51:53;100034.14;;;4.32;100.00
79690;BME280;69156;55.932;-3.238;2023-12-04T01:54:20;100035.67;;;4.22;100.00
79690;BME280;69156;55.932;-3.238;2023-12-04T01:56:46;100035.30;;;4.24;100.00
79690;BME280;69156;55.932;-3.238;2023-12-04T01:59:11;100032.99;;;4.18;100.00
79690;BME280;69156;55.932;-3.238;2023-12-04T02:01:36;100033.48;;;4.37;100.00
79690;BME280;69156;55.932;-3.238;2023-12-04T02:04:02;100033.98;;;4.28;100.00
79690;BME280;69156;55.932;-3.238;2023-12-04T02:06:26;100034.61;;;4.29;100.00
79690;BME280;69156;55.932;-3.238;2023-12-04T02:08:52;100035.71;;;4.31;100.00
79690;BME280;69156;55.932;-3.238;2023-12-04T02:11:18;100039.62;;;4.38;100.00
79690;BME280;69156;55.932;-3.238;2023-12-04T02:13:43;100035.82;;;4.28;100.00
79690;BME280;69156;55.932;-3.238;2023-12-04T02:16:10;100033.76;;;4.27;100.00
79690;BME280;69156;55.932;-3.238;2023-12-04T02:18:35;100031.12;;;4.28;100.00
79690;BME280;69156;55.932;-3.238;2023-12-04T02:21:01;100028.51;;;4.18;100.00
79690;BME280;69156;55.932;-3.238;2023-12-04T02:23:27;100029.65;;;4.25;100.00
79690;BME280;69156;55.932;-3.238;2023-12-04T02:25:55;100030.64;;;4.14;100.00
79690;BME280;69156;55.932;-3.238;2023-12-04T02:28:19;100033.34;;;4.33;100.00
79690;BME280;69156;55.932;-3.238;2023-12-04T02:30:46;100032.39;;;4.32;100.00
79690;BME280;69156;55.932;-3.238;2023-12-04T02:33:11;100030.39;;;4.19;100.00
79690;BME280;69156;55.932;-3.238;2023-12-04T02:35:36;100029.82;;;4.23;100.00
79690;BME280;69156;55.932;-3.238;2023-12-04T02:38:00;100028.17;;;4.25;100.00
79690;BME280;69156;55.932;-3.238;2023-12-04T02:40:25;100028.36;;;4.15;100.00
79690;BME280;69156;55.932;-3.238;2023-12-04T02:42:51;100030.03;;;4.16;100.00
79690;BME280;69156;55.932;-3.238;2023-12-04T02:45:16;100024.04;;;4.25;100.00
79690;BME280;69156;55.932;-3.238;2023-12-04T02:47:43;100024.36;;;4.28;100.00
79690;BME280;69156;55.932;-3.238;2023-12-04T02:50:08;100021.64;;;4.20;100.00
79690;BME280;69156;55.932;-3.238;2023-12-04T02:52:33;100021.78;;;4.21;100.00
79690;BME280;69156;55.932;-3.238;2023-12-04T02:54:59;100022.84;;;4.16;100.00
79690;BME280;69156;55.932;-3.238;2023-12-04T02:57:24;100014.77;;;4.15;100.00
79690;BME280;69156;55.932;-3.238;2023-12-04T02:59:49;100011.08;;;4.10;100.00
79690;BME280;69156;55.932;-3.238;2023-12-04T03:02:15;100009.51;;;4.05;100.00
79690;BME280;69156;55.932;-3.238;2023-12-04T03:04:40;100014.03;;;3.98;100.00
79690;BME280;69156;55.932;-3.238;2023-12-04T03:07:06;100010.34;;;3.99;100.00
79690;BME280;69156;55.932;-3.238;2023-12-04T03:09:31;100006.01;;;3.92;100.00
79690;BME280;69156;55.932;-3.238;2023-12-04T03:11:56;100003.12;;;4.03;100.00
79690;BME280;69156;55.932;-3.238;2023-12-04T03:14:22;100005.58;;;3.95;100.00
79690;BME280;69156;55.932;-3.238;2023-12-04T03:16:47;100005.43;;;4.01;100.00
79690;BME280;69156;55.932;-3.238;2023-12-04T03:19:13;100004.03;;;4.01;100.00
79690;BME280;69156;55.932;-3.238;2023-12-04T03:21:38;99998.80;;;4.01;100.00
79690;BME280;69156;55.932;-3.238;2023-12-04T03:24:04;100000.40;;;4.12;100.00
79690;BME280;69156;55.932;-3.238;2023-12-04T03:26:29;99995.55;;;4.09;100.00
79690;BME280;69156;55.932;-3.238;2023-12-04T03:28:55;99994.20;;;4.04;100.00
79690;BME280;69156;55.932;-3.238;2023-12-04T03:31:21;99993.24;;;3.89;100.00
79690;BME280;69156;55.932;-3.238;2023-12-04T03:33:45;99990.16;;;3.96;100.00
79690;BME280;69156;55.932;-3.238;2023-12-04T03:36:11;99988.25;;;3.99;100.00
79690;BME280;69156;55.932;-3.238;2023-12-04T03:38:37;99983.20;;;4.19;100.00
79690;BME280;69156;55.932;-3.238;2023-12-04T03:41:02;99980.71;;;4.11;100.00
79690;BME280;69156;55.932;-3.238;2023-12-04T03:43:28;99982.55;;;4.01;100.00
79690;BME280;69156;55.932;-3.238;2023-12-04T03:45:54;99983.77;;;4.12;100.00
79690;BME280;69156;55.932;-3.238;2023-12-04T03:48:20;99985.88;;;4.12;100.00
79690;BME280;69156;55.932;-3.238;2023-12-04T03:50:45;99988.89;;;4.41;100.00
79690;BME280;69156;55.932;-3.238;2023-12-04T03:53:10;99989.46;;;4.41;100.00
79690;BME280;69156;55.932;-3.238;2023-12-04T03:55:35;99985.21;;;4.22;100.00
79690;BME280;69156;55.932;-3.238;2023-12-04T03:58:01;99984.72;;;4.25;100.00
79690;BME280;69156;55.932;-3.238;2023-12-04T04:00:27;99989.91;;;4.37;100.00
79690;BME280;69156;55.932;-3.238;2023-12-04T04:02:52;99985.13;;;4.18;100.00
79690;BME280;69156;55.932;-3.238;2023-12-04T04:05:18;99987.11;;;4.38;100.00
79690;BME280;69156;55.932;-3.238;2023-12-04T04:07:44;99985.02;;;4.48;100.00
79690;BME280;69156;55.932;-3.238;2023-12-04T04:10:09;99982.91;;;4.51;100.00
79690;BME280;69156;55.932;-3.238;2023-12-04T04:12:34;99975.78;;;4.32;100.00
79690;BME280;69156;55.932;-3.238;2023-12-04T04:15:01;99975.07;;;4.28;100.00
79690;BME280;69156;55.932;-3.238;2023-12-04T04:17:26;99974.02;;;4.29;100.00
79690;BME280;69156;55.932;-3.238;2023-12-04T04:19:53;99973.84;;;4.30;100.00
79690;BME280;69156;55.932;-3.238;2023-12-04T04:22:19;99967.05;;;4.22;100.00
79690;BME280;69156;55.932;-3.238;2023-12-04T04:24:44;99963.54;;;4.49;100.00
79690;BME280;69156;55.932;-3.238;2023-12-04T04:27:09;99965.22;;;4.26;100.00
79690;BME280;69156;55.932;-3.238;2023-12-04T04:29:35;99962.79;;;4.32;100.00
79690;BME280;69156;55.932;-3.238;2023-12-04T04:32:01;99961.96;;;4.30;100.00
79690;BME280;69156;55.932;-3.238;2023-12-04T04:34:26;99962.21;;;4.10;100.00
79690;BME280;69156;55.932;-3.238;2023-12-04T04:36:51;99959.97;;;4.03;100.00
79690;BME280;69156;55.932;-3.238;2023-12-04T04:39:18;99965.21;;;4.02;100.00
79690;BME280;69156;55.932;-3.238;2023-12-04T04:41:44;99963.74;;;4.01;100.00
79690;BME280;69156;55.932;-3.238;2023-12-04T04:44:09;99958.71;;;4.10;100.00
79690;BME280;69156;55.932;-3.238;2023-12-04T04:46:34;99958.93;;;4.05;100.00
79690;BME280;69156;55.932;-3.238;2023-12-04T04:49:00;99959.93;;;3.91;100.00
79690;BME280;69156;55.932;-3.238;2023-12-04T04:51:25;99956.87;;;4.09;100.00
79690;BME280;69156;55.932;-3.238;2023-12-04T04:53:51;99953.79;;;4.13;100.00
79690;BME280;69156;55.932;-3.238;2023-12-04T04:56:17;99952.53;;;4.02;100.00
79690;BME280;69156;55.932;-3.238;2023-12-04T04:58:43;99951.12;;;3.96;100.00
79690;BME280;69156;55.932;-3.238;2023-12-04T05:01:09;99949.50;;;4.06;100.00
79690;BME280;69156;55.932;-3.238;2023-12-04T05:03:34;99948.80;;;3.89;100.00
79690;BME280;69156;55.932;-3.238;2023-12-04T05:06:00;99944.44;;;3.95;100.00
79690;BME280;69156;55.932;-3.238;2023-12-04T05:08:25;99944.14;;;3.82;100.00
79690;BME280;69156;55.932;-3.238;2023-12-04T05:10:51;99943.05;;;3.97;100.00
79690;BME280;69156;55.932;-3.238;2023-12-04T05:13:17;99945.92;;;3.86;100.00
79690;BME280;69156;55.932;-3.238;2023-12-04T05:15:42;99942.39;;;4.04;100.00
79690;BME280;69156;55.932;-3.238;2023-12-04T05:18:07;99942.32;;;3.92;100.00
79690;BME280;69156;55.932;-3.238;2023-12-04T05:20:32;99938.59;;;3.95;100.00
79690;BME280;69156;55.932;-3.238;2023-12-04T05:22:58;99938.53;;;3.94;100.00
79690;BME280;69156;55.932;-3.238;2023-12-04T05:25:24;99938.61;;;3.99;100.00
79690;BME280;69156;55.932;-3.238;2023-12-04T05:27:51;99935.59;;;3.99;100.00
79690;BME280;69156;55.932;-3.238;2023-12-04T05:30:16;99936.17;;;4.03;100.00
79690;BME280;69156;55.932;-3.238;2023-12-04T05:32:42;99930.90;;;4.10;100.00
79690;BME280;69156;55.932;-3.238;2023-12-04T05:35:08;99928.40;;;3.97;100.00
79690;BME280;69156;55.932;-3.238;2023-12-04T05:37:33;99928.56;;;4.05;100.00
79690;BME280;69156;55.932;-3.238;2023-12-04T05:39:59;99928.02;;;4.00;100.00
79690;BME280;69156;55.932;-3.238;2023-12-04T05:42:25;99930.62;;;3.97;100.00
79690;BME280;69156;55.932;-3.238;2023-12-04T05:44:51;99935.23;;;4.03;100.00
79690;BME280;69156;55.932;-3.238;2023-12-04T05:47:16;99936.82;;;4.31;100.00
79690;BME280;69156;55.932;-3.238;2023-12-04T05:49:42;99937.19;;;4.35;100.00
79690;BME280;69156;55.932;-3.238;2023-12-04T05:52:07;99933.07;;;4.19;100.00
79690;BME280;69156;55.932;-3.238;2023-12-04T05:54:33;99931.68;;;4.41;100.00
79690;BME280;69156;55.932;-3.238;2023-12-04T05:56:59;99926.01;;;4.58;100.00
79690;BME280;69156;55.932;-3.238;2023-12-04T05:59:26;99920.12;;;4.60;100.00
79690;BME280;69156;55.932;-3.238;2023-12-04T06:01:52;99921.99;;;4.36;100.00
79690;BME280;69156;55.932;-3.238;2023-12-04T06:04:18;99918.35;;;4.62;100.00
79690;BME280;69156;55.932;-3.238;2023-12-04T06:06:43;99915.08;;;4.38;100.00
79690;BME280;69156;55.932;-3.238;2023-12-04T06:09:08;99916.36;;;4.64;100.00
79690;BME280;69156;55.932;-3.238;2023-12-04T06:11:36;99911.67;;;4.78;100.00
79690;BME280;69156;55.932;-3.238;2023-12-04T06:14:00;99911.13;;;4.80;100.00
79690;BME280;69156;55.932;-3.238;2023-12-04T06:16:25;99910.82;;;4.77;100.00
79690;BME280;69156;55.932;-3.238;2023-12-04T06:18:52;99906.74;;;4.69;100.00
79690;BME280;69156;55.932;-3.238;2023-12-04T06:21:18;99906.27;;;4.90;100.00
79690;BME280;69156;55.932;-3.238;2023-12-04T06:23:44;99902.76;;;4.67;100.00
79690;BME280;69156;55.932;-3.238;2023-12-04T06:26:10;99899.26;;;4.81;100.00
79690;BME280;69156;55.932;-3.238;2023-12-04T06:28:34;99896.44;;;4.66;100.00
79690;BME280;69156;55.932;-3.238;2023-12-04T06:31:00;99897.52;;;4.50;100.00
79690;BME280;69156;55.932;-3.238;2023-12-04T06:33:25;99898.76;;;4.69;100.00
79690;BME280;69156;55.932;-3.238;2023-12-04T06:35:51;99892.71;;;4.86;100.00
79690;BME280;69156;55.932;-3.238;2023-12-04T06:38:16;99892.78;;;5.02;100.00
79690;BME280;69156;55.932;-3.238;2023-12-04T06:40:42;99888.76;;;5.10;100.00
79690;BME280;69156;55.932;-3.238;2023-12-04T06:43:08;99885.66;;;5.00;100.00
79690;BME280;69156;55.932;-3.238;2023-12-04T06:45:34;99887.07;;;5.12;100.00
79690;BME280;69156;55.932;-3.238;2023-12-04T06:47:59;99888.00;;;5.06;100.00
79690;BME280;69156;55.932;-3.238;2023-12-04T06:50:24;99881.13;;;5.31;100.00
79690;BME280;69156;55.932;-3.238;2023-12-04T06:52:49;99882.68;;;5.23;100.00
79690;BME280;69156;55.932;-3.238;2023-12-04T06:55:15;99882.49;;;5.50;100.00
79690;BME280;69156;55.932;-3.238;2023-12-04T06:57:41;99888.10;;;5.44;100.00
79690;BME280;69156;55.932;-3.238;2023-12-04T07:00:08;99888.05;;;5.28;100.00
79690;BME280;69156;55.932;-3.238;2023-12-04T07:02:34;99881.61;;;5.10;100.00
79690;BME280;69156;55.932;-3.238;2023-12-04T07:04:59;99881.78;;;5.09;100.00
79690;BME280;69156;55.932;-3.238;2023-12-04T07:07:25;99882.11;;;5.24;100.00
79690;BME280;69156;55.932;-3.238;2023-12-04T07:09:50;99882.01;;;5.15;100.00
79690;BME280;69156;55.932;-3.238;2023-12-04T07:12:15;99881.18;;;5.12;100.00
79690;BME280;69156;55.932;-3.238;2023-12-04T07:14:41;99886.36;;;5.10;100.00
79690;BME280;69156;55.932;-3.238;2023-12-04T07:17:07;99888.25;;;5.06;100.00
79690;BME280;69156;55.932;-3.238;2023-12-04T07:19:32;99884.72;;;5.20;100.00
79690;BME280;69156;55.932;-3.238;2023-12-04T07:21:59;99882.76;;;5.09;100.00
79690;BME280;69156;55.932;-3.238;2023-12-04T07:24:24;99882.45;;;5.02;100.00
79690;BME280;69156;55.932;-3.238;2023-12-04T07:26:50;99886.91;;;5.10;100.00
79690;BME280;69156;55.932;-3.238;2023-12-04T07:29:15;99890.09;;;5.16;100.00
79690;BME280;69156;55.932;-3.238;2023-12-04T07:31:42;99887.64;;;5.21;100.00
79690;BME280;69156;55.932;-3.238;2023-12-04T07:34:07;99886.68;;;5.16;100.00
79690;BME280;69156;55.932;-3.238;2023-12-04T07:36:33;99887.06;;;5.15;100.00
79690;BME280;69156;55.932;-3.238;2023-12-04T07:38:57;99891.84;;;5.48;100.00
79690;BME280;69156;55.932;-3.238;2023-12-04T07:41:23;99893.01;;;5.41;100.00
79690;BME280;69156;55.932;-3.238;2023-12-04T07:43:49;99897.34;;;5.28;100.00
79690;BME280;69156;55.932;-3.238;2023-12-04T07:46:15;99899.04;;;5.41;100.00
79690;BME280;69156;55.932;-3.238;2023-12-04T07:48:41;99892.23;;;5.51;100.00
79690;BME280;69156;55.932;-3.238;2023-12-04T07:51:06;99894.74;;;5.59;100.00
79690;BME280;69156;55.932;-3.238;2023-12-04T07:53:31;99891.72;;;5.36;100.00
79690;BME280;69156;55.932;-3.238;2023-12-04T07:55:57;99892.62;;;5.33;100.00
79690;BME280;69156;55.932;-3.238;2023-12-04T07:58:22;99895.93;;;5.27;100.00
79690;BME280;69156;55.932;-3.238;2023-12-04T08:00:48;99899.77;;;5.25;100.00
79690;BME280;69156;55.932;-3.238;2023-12-04T08:03:12;99896.63;;;5.42;100.00
79690;BME280;69156;55.932;-3.238;2023-12-04T08:05:38;99897.50;;;5.43;100.00
79690;BME280;69156;55.932;-3.238;2023-12-04T08:08:13;99898.11;;;5.62;100.00
79690;BME280;69156;55.932;-3.238;2023-12-04T08:10:33;99898.80;;;5.59;100.00
79690;BME280;69156;55.932;-3.238;2023-12-04T08:12:58;99900.46;;;5.51;100.00
79690;BME280;69156;55.932;-3.238;2023-12-04T08:15:23;99900.34;;;5.59;100.00
79690;BME280;69156;55.932;-3.238;2023-12-04T08:17:49;99897.79;;;5.60;100.00
79690;BME280;69156;55.932;-3.238;2023-12-04T08:20:14;99901.27;;;5.43;100.00
79690;BME280;69156;55.932;-3.238;2023-12-04T08:22:39;99904.73;;;5.58;100.00
79690;BME280;69156;55.932;-3.238;2023-12-04T08:25:05;99905.48;;;5.52;100.00
79690;BME280;69156;55.932;-3.238;2023-12-04T08:27:30;99908.35;;;5.59;100.00
79690;BME280;69156;55.932;-3.238;2023-12-04T08:29:55;99911.93;;;5.59;100.00
79690;BME280;69156;55.932;-3.238;2023-12-04T08:32:20;99916.73;;;5.75;100.00
79690;BME280;69156;55.932;-3.238;2023-12-04T08:34:46;99913.77;;;5.71;100.00
79690;BME280;69156;55.932;-3.238;2023-12-04T08:37:12;99913.90;;;5.67;100.00
79690;BME280;69156;55.932;-3.238;2023-12-04T08:39:37;99913.49;;;5.49;100.00
79690;BME280;69156;55.932;-3.238;2023-12-04T08:42:03;99917.04;;;5.56;100.00
79690;BME280;69156;55.932;-3.238;2023-12-04T08:44:27;99917.71;;;5.70;100.00
79690;BME280;69156;55.932;-3.238;2023-12-04T08:46:53;99920.84;;;5.66;100.00
79690;BME280;69156;55.932;-3.238;2023-12-04T08:49:18;99922.85;;;5.68;100.00
79690;BME280;69156;55.932;-3.238;2023-12-04T08:51:44;99927.37;;;5.60;100.00
79690;BME280;69156;55.932;-3.238;2023-12-04T08:54:09;99924.36;;;5.64;100.00
79690;BME280;69156;55.932;-3.238;2023-12-04T08:56:35;99928.31;;;5.60;100.00
79690;BME280;69156;55.932;-3.238;2023-12-04T08:59:00;99925.70;;;5.58;100.00
79690;BME280;69156;55.932;-3.238;2023-12-04T09:01:26;99928.67;;;5.51;100.00
79690;BME280;69156;55.932;-3.238;2023-12-04T09:03:53;99928.55;;;5.52;100.00
79690;BME280;69156;55.932;-3.238;2023-12-04T09:06:18;99929.51;;;5.53;100.00
79690;BME280;69156;55.932;-3.238;2023-12-04T09:08:43;99930.00;;;5.62;100.00
79690;BME280;69156;55.932;-3.238;2023-12-04T09:11:09;99931.89;;;5.52;100.00
79690;BME280;69156;55.932;-3.238;2023-12-04T09:13:34;99940.27;;;5.45;100.00
79690;BME280;69156;55.932;-3.238;2023-12-04T09:16:01;99942.08;;;5.41;100.00
79690;BME280;69156;55.932;-3.238;2023-12-04T09:18:27;99941.72;;;5.40;100.00
79690;BME280;69156;55.932;-3.238;2023-12-04T09:20:52;99945.20;;;5.48;100.00
79690;BME280;69156;55.932;-3.238;2023-12-04T09:23:17;99944.62;;;5.40;100.00
79690;BME280;69156;55.932;-3.238;2023-12-04T09:25:43;99948.64;;;5.34;100.00
79690;BME280;69156;55.932;-3.238;2023-12-04T09:28:08;99945.30;;;5.18;100.00
79690;BME280;69156;55.932;-3.238;2023-12-04T09:30:35;99953.04;;;5.22;100.00
79690;BME280;69156;55.932;-3.238;2023-12-04T09:32:59;99949.51;;;5.37;100.00
79690;BME280;69156;55.932;-3.238;2023-12-04T09:35:24;99950.62;;;5.51;100.00
79690;BME280;69156;55.932;-3.238;2023-12-04T09:37:50;99954.57;;;5.29;100.00
79690;BME280;69156;55.932;-3.238;2023-12-04T09:40:15;99948.20;;;5.42;100.00
79690;BME280;69156;55.932;-3.238;2023-12-04T09:42:41;99951.70;;;5.50;100.00
79690;BME280;69156;55.932;-3.238;2023-12-04T09:45:08;99957.69;;;5.45;100.00
79690;BME280;69156;55.932;-3.238;2023-12-04T09:47:33;99959.38;;;5.39;100.00
79690;BME280;69156;55.932;-3.238;2023-12-04T09:49:57;99958.15;;;5.35;100.00
79690;BME280;69156;55.932;-3.238;2023-12-04T09:52:23;99956.08;;;5.43;100.00
79690;BME280;69156;55.932;-3.238;2023-12-04T09:54:50;99952.96;;;5.44;100.00
79690;BME280;69156;55.932;-3.238;2023-12-04T09:57:14;99950.34;;;5.39;100.00
79690;BME280;69156;55.932;-3.238;2023-12-04T09:59:40;99954.15;;;5.60;100.00
79690;BME280;69156;55.932;-3.238;2023-12-04T10:02:05;99952.10;;;5.63;100.00
79690;BME280;69156;55.932;-3.238;2023-12-04T10:04:30;99949.78;;;5.74;100.00
79690;BME280;69156;55.932;-3.238;2023-12-04T10:06:55;99955.15;;;5.68;100.00
79690;BME280;69156;55.932;-3.238;2023-12-04T10:09:20;99960.25;;;5.69;100.00
79690;BME280;69156;55.932;-3.238;2023-12-04T10:11:51;99962.11;;;5.79;100.00
79690;BME280;69156;55.932;-3.238;2023-12-04T10:14:16;99960.01;;;5.70;100.00
79690;BME280;69156;55.932;-3.238;2023-12-04T10:16:37;99960.22;;;5.72;100.00
79690;BME280;69156;55.932;-3.238;2023-12-04T10:19:20;99960.48;;;5.68;100.00
79690;BME280;69156;55.932;-3.238;2023-12-04T10:21:32;99960.77;;;5.78;100.00
79690;BME280;69156;55.932;-3.238;2023-12-04T10:23:52;99963.42;;;5.69;100.00
79690;BME280;69156;55.932;-3.238;2023-12-04T10:26:17;99964.06;;;5.78;100.00
79690;BME280;69156;55.932;-3.238;2023-12-04T10:28:58;99963.13;;;5.81;100.00
79690;BME280;69156;55.932;-3.238;2023-12-04T10:31:09;99961.10;;;5.70;100.00
79690;BME280;69156;55.932;-3.238;2023-12-04T10:33:34;99958.73;;;5.72;100.00
79690;BME280;69156;55.932;-3.238;2023-12-04T10:36:00;99962.56;;;5.78;100.00
79690;BME280;69156;55.932;-3.238;2023-12-04T10:38:26;99963.55;;;5.94;100.00
79690;BME280;69156;55.932;-3.238;2023-12-04T10:40:52;99964.64;;;5.91;100.00
79690;BME280;69156;55.932;-3.238;2023-12-04T10:43:18;99962.88;;;5.94;100.00
79690;BME280;69156;55.932;-3.238;2023-12-04T10:45:43;99958.76;;;6.05;100.00
79690;BME280;69156;55.932;-3.238;2023-12-04T10:48:08;99962.99;;;6.08;100.00
79690;BME280;69156;55.932;-3.238;2023-12-04T10:50:33;99959.98;;;6.04;100.00
79690;BME280;69156;55.932;-3.238;2023-12-04T10:52:58;99969.49;;;6.13;100.00
79690;BME280;69156;55.932;-3.238;2023-12-04T10:55:24;99971.53;;;6.07;100.00
79690;BME280;69156;55.932;-3.238;2023-12-04T10:57:51;99973.84;;;6.06;100.00
79690;BME280;69156;55.932;-3.238;2023-12-04T11:00:15;99971.01;;;5.96;100.00
79690;BME280;69156;55.932;-3.238;2023-12-04T11:02:43;99958.45;;;5.95;100.00
79690;BME280;69156;55.932;-3.238;2023-12-04T11:05:07;99956.62;;;6.06;100.00
79690;BME280;69156;55.932;-3.238;2023-12-04T11:07:32;99952.11;;;6.12;100.00
79690;BME280;69156;55.932;-3.238;2023-12-04T11:09:59;99955.42;;;6.20;100.00
79690;BME280;69156;55.932;-3.238;2023-12-04T11:12:25;99951.08;;;6.16;100.00
79690;BME280;69156;55.932;-3.238;2023-12-04T11:14:53;99950.46;;;6.10;100.00
79690;BME280;69156;55.932;-3.238;2023-12-04T11:17:15;99959.01;;;6.14;100.00
79690;BME280;69156;55.932;-3.238;2023-12-04T11:19:47;99953.39;;;6.22;100.00
79690;BME280;69156;55.932;-3.238;2023-12-04T11:22:07;99952.23;;;6.22;100.00
79690;BME280;69156;55.932;-3.238;2023-12-04T11:24:31;99960.64;;;6.19;100.00
79690;BME280;69156;55.932;-3.238;2023-12-04T11:26:56;99945.12;;;6.27;100.00
79690;BME280;69156;55.932;-3.238;2023-12-04T11:29:21;99936.93;;;6.12;100.00
79690;BME280;69156;55.932;-3.238;2023-12-04T11:31:46;99924.93;;;6.32;100.00
79690;BME280;69156;55.932;-3.238;2023-12-04T11:34:12;99934.22;;;6.33;100.00
79690;BME280;69156;55.932;-3.238;2023-12-04T11:36:36;99927.60;;;6.35;100.00
79690;BME280;69156;55.932;-3.238;2023-12-04T11:39:02;99924.50;;;6.45;100.00
79690;BME280;69156;55.932;-3.238;2023-12-04T11:41:27;99916.68;;;6.57;100.00
79690;BME280;69156;55.932;-3.238;2023-12-04T11:43:55;99917.94;;;6.73;100.00
79690;BME280;69156;55.932;-3.238;2023-12-04T11:46:20;99912.17;;;6.63;100.00
79690;BME280;69156;55.932;-3.238;2023-12-04T11:48:45;99911.53;;;6.79;100.00
79690;BME280;69156;55.932;-3.238;2023-12-04T11:51:15;99923.57;;;6.71;100.00
79690;BME280;69156;55.932;-3.238;2023-12-04T11:53:38;99932.69;;;6.66;100.00
79690;BME280;69156;55.932;-3.238;2023-12-04T11:56:09;99929.48;;;6.65;100.00
79690;BME280;69156;55.932;-3.238;2023-12-04T11:58:28;99934.05;;;6.41;100.00
79690;BME280;69156;55.932;-3.238;2023-12-04T12:00:53;99932.42;;;6.48;100.00
79690;BME280;69156;55.932;-3.238;2023-12-04T12:03:21;99929.70;;;6.35;100.00
79690;BME280;69156;55.932;-3.238;2023-12-04T12:05:49;99927.31;;;6.54;100.00
79690;BME280;69156;55.932;-3.238;2023-12-04T12:08:11;99927.21;;;6.57;100.00
79690;BME280;69156;55.932;-3.238;2023-12-04T12:10:37;99926.23;;;6.67;100.00
79690;BME280;69156;55.932;-3.238;2023-12-04T12:13:02;99924.36;;;6.64;100.00
79690;BME280;69156;55.932;-3.238;2023-12-04T12:15:28;99921.64;;;6.63;100.00
79690;BME280;69156;55.932;-3.238;2023-12-04T12:17:54;99943.54;;;6.79;100.00
79690;BME280;69156;55.932;-3.238;2023-12-04T12:20:19;99933.19;;;6.66;100.00
79690;BME280;69156;55.932;-3.238;2023-12-04T12:22:44;99926.77;;;6.74;100.00
79690;BME280;69156;55.932;-3.238;2023-12-04T12:25:11;99927.53;;;6.72;100.00
79690;BME280;69156;55.932;-3.238;2023-12-04T12:27:36;99920.98;;;6.48;100.00
79690;BME280;69156;55.932;-3.238;2023-12-04T12:30:01;99930.28;;;6.34;100.00
79690;BME280;69156;55.932;-3.238;2023-12-04T12:32:26;99922.72;;;6.21;100.00
79690;BME280;69156;55.932;-3.238;2023-12-04T12:34:53;99931.01;;;6.24;100.00
79690;BME280;69156;55.932;-3.238;2023-12-04T12:37:18;99940.62;;;6.24;100.00